Time;durP1;ratioP1;P1;durP2;ratioP2;P2;SDS_P1;SDS_P2;PMS_P1;PMS_P2;Temp;Humidity;BMP_temperature;BMP_pressure;BME280_temperature;BME280_humidity;BME280_pressure;Samples;Min_cycle;Max_cycle;Signal;HPM_P1;HPM_P2
2022/09/16 00:00:19;;;;;;;11.23;1.77;;;;;;;-143.48;77.49;78371.13;5075109;28;20035;-41
2022/09/16 00:02:45;;;;;;;5.80;1.50;;;;;;;-143.48;77.10;78353.28;5074402;28;20029;-40
2022/09/16 00:05:10;;;;;;;6.90;1.50;;;;;;;-143.48;77.13;78353.28;5074465;28;20029;-41
2022/09/16 00:07:36;;;;;;;9.13;2.00;;;;;;;-143.48;77.17;78369.13;5074375;28;20016;-42
2022/09/16 00:10:03;;;;;;;12.70;1.60;;;;;;;-143.48;77.67;78351.28;5074435;28;20459;-41
2022/09/16 00:12:28;;;;;;;5.05;1.50;;;;;;;-143.48;77.55;78365.16;5074091;28;20052;-40
2022/09/16 00:14:54;;;;;;;4.45;1.35;;;;;;;-143.48;77.42;78365.16;5056925;28;20206;-40
2022/09/16 00:17:21;;;;;;;4.65;1.40;;;;;;;-143.48;77.77;78351.28;5074139;28;20047;-41
2022/09/16 00:19:46;;;;;;;9.88;1.80;;;;;;;-143.48;77.21;78353.28;5073043;28;20028;-41
2022/09/16 00:22:12;;;;;;;4.65;1.38;;;;;;;-143.48;76.14;78359.22;5056233;28;20430;-40
2022/09/16 00:24:37;;;;;;;7.65;1.40;;;;;;;-143.48;75.95;78337.41;5074218;28;20070;-41
2022/09/16 00:27:03;;;;;;;11.90;1.20;;;;;;;-143.48;74.59;78349.31;5056144;28;20081;-41
2022/09/16 00:29:28;;;;;;;4.85;1.48;;;;;;;-143.48;75.20;78367.16;5056126;28;20032;-41
2022/09/16 00:31:53;;;;;;;6.75;1.42;;;;;;;-143.48;76.03;78361.19;5074251;28;20054;-41
2022/09/16 00:34:19;;;;;;;7.47;1.40;;;;;;;-143.48;76.33;78383.00;5073885;28;20453;-41
2022/09/16 00:36:44;;;;;;;8.98;1.30;;;;;;;-143.48;77.51;78383.00;5055698;28;20035;-42
2022/09/16 00:39:09;;;;;;;6.65;1.42;;;;;;;-143.48;76.97;78398.88;5073810;28;20052;-40
2022/09/16 00:41:36;;;;;;;4.68;1.40;;;;;;;-143.48;76.68;78379.06;5073783;28;20024;-41
2022/09/16 00:44:04;;;;;;;6.43;1.13;;;;;;;-143.48;76.95;78385.00;5073739;28;20471;-41
2022/09/16 00:46:29;;;;;;;8.95;1.63;;;;;;;-143.48;77.47;78398.88;5073949;28;20107;-41
2022/09/16 00:48:57;;;;;;;8.30;1.48;;;;;;;-143.48;77.84;78388.97;5074195;28;20478;-41
2022/09/16 00:51:24;;;;;;;5.20;1.20;;;;;;;-143.48;78.61;78406.81;5055915;28;20058;-41
2022/09/16 00:53:56;;;;;;;7.80;1.60;;;;;;;-143.48;79.13;78386.97;5074119;28;20028;-41
2022/09/16 00:56:25;;;;;;;8.15;1.33;;;;;;;-143.48;78.98;78402.84;5073740;28;20028;-41
2022/09/16 00:59:03;;;;;;;14.82;1.60;;;;;;;-143.48;79.20;78410.78;5073442;28;20382;-41
2022/09/16 01:01:30;;;;;;;5.32;1.30;;;;;;;-143.48;78.46;78412.75;5074088;28;20028;-40
2022/09/16 01:04:00;;;;;;;3.78;0.73;;;;;;;-143.48;78.07;78410.78;5073427;28;20025;-44
2022/09/16 01:06:27;;;;;;;5.20;1.08;;;;;;;-143.48;78.36;78404.84;5074088;28;20112;-42
2022/09/16 01:08:54;;;;;;;6.80;1.10;;;;;;;-143.48;79.14;78414.75;5073270;28;20099;-41
2022/09/16 01:11:19;;;;;;;4.40;0.88;;;;;;;-143.48;79.41;78422.69;5073422;28;20035;-42
2022/09/16 01:13:45;;;;;;;1.58;0.60;;;;;;;-143.48;79.51;78418.72;5073182;28;20049;-41
2022/09/16 01:16:17;;;;;;;6.85;0.95;;;;;;;-143.48;79.70;78408.81;5073309;28;20047;-41
2022/09/16 01:18:49;;;;;;;1.70;0.90;;;;;;;-143.48;79.45;78424.66;5073221;28;20044;-40
2022/09/16 01:21:32;;;;;;;5.55;0.90;;;;;;;-143.48;79.32;78436.56;5073199;28;20052;-41
2022/09/16 01:24:06;;;;;;;9.57;1.42;;;;;;;-143.48;79.16;78434.59;5073517;28;20028;-41
2022/09/16 01:27:00;;;;;;;7.05;0.93;;;;;;;-143.48;79.23;78468.28;5073493;28;20052;-41
2022/09/16 01:30:00;;;;;;;6.65;1.00;;;;;;;-143.48;79.81;78472.25;5073502;28;20082;-41
2022/09/16 01:32:34;;;;;;;6.28;1.75;;;;;;;-143.48;79.92;78482.19;5073076;28;20418;-41
2022/09/16 01:35:17;;;;;;;6.22;1.17;;;;;;;-143.48;79.64;78478.22;5073373;28;20028;-40
2022/09/16 01:38:08;;;;;;;5.07;1.23;;;;;;;-143.48;80.43;78494.06;5072978;28;20215;-41
2022/09/16 01:40:53;;;;;;;2.53;0.98;;;;;;;-143.48;80.19;78498.03;5073130;28;20467;-41
2022/09/16 01:43:37;;;;;;;4.45;0.85;;;;;;;-143.48;80.62;78476.22;5073821;28;20459;-41
2022/09/16 01:46:19;;;;;;;2.88;0.88;;;;;;;-143.48;80.26;78474.25;5073315;28;20024;-42
2022/09/16 01:48:59;;;;;;;7.27;0.90;;;;;;;-143.48;80.89;78478.22;5073860;28;20527;-41
2022/09/16 01:51:35;;;;;;;3.95;0.85;;;;;;;-143.48;80.98;78486.16;5073209;28;20255;-40
2022/09/16 01:54:43;;;;;;;5.57;0.90;;;;;;;-143.48;81.20;78476.22;5072815;28;20471;-40
2022/09/16 01:57:22;;;;;;;5.30;0.95;;;;;;;-143.48;81.04;78458.38;5072327;28;20072;-41
2022/09/16 01:59:56;;;;;;;4.30;1.23;;;;;;;-143.48;81.46;78448.47;5072903;28;20099;-41
2022/09/16 02:02:39;;;;;;;6.18;1.20;;;;;;;-143.48;80.59;78448.47;5073375;28;20072;-41
2022/09/16 02:05:08;;;;;;;;;;;;;;;-143.48;81.04;78454.41;5073193;28;20028;-40
2022/09/16 02:07:37;;;;;;;5.50;1.33;;;;;;;-143.48;81.09;78444.50;5072799;28;19916;-40
2022/09/16 02:10:30;;;;;;;4.20;0.90;;;;;;;-143.48;80.79;78456.41;5072752;28;20055;-41
2022/09/16 02:13:05;;;;;;;4.90;0.93;;;;;;;-143.48;80.27;78440.53;5072854;28;20047;-41
2022/09/16 02:15:33;;;;;;;7.13;1.33;;;;;;;-143.48;80.53;78428.63;5072969;28;20020;-41
2022/09/16 02:18:03;;;;;;;2.58;0.90;;;;;;;-143.48;79.88;78448.47;5072940;28;20402;-42
2022/09/16 02:20:31;;;;;;;5.82;1.02;;;;;;;-143.48;79.66;78418.72;5073463;28;20046;-41
2022/09/16 02:23:05;;;;;;;4.00;1.08;;;;;;;-143.48;79.58;78414.75;5072699;28;20028;-40
2022/09/16 02:25:34;;;;;;;5.85;0.90;;;;;;;-143.48;79.64;78406.81;5072559;28;20043;-41
2022/09/16 02:28:05;;;;;;;7.38;0.90;;;;;;;-143.48;79.40;78412.75;5072534;28;20028;-42
2022/09/16 02:30:31;;;;;;;5.18;0.90;;;;;;;-143.48;79.41;78428.63;5073148;28;20027;-42
2022/09/16 02:33:03;;;;;;;4.28;1.10;;;;;;;-143.48;80.45;78438.53;5072829;28;20024;-40
2022/09/16 02:35:30;;;;;;;7.13;1.30;;;;;;;-143.48;80.50;78472.25;5073033;28;20111;-41
2022/09/16 02:38:08;;;;;;;10.05;1.40;;;;;;;-143.48;80.27;78472.25;5072249;28;20028;-41
2022/09/16 02:40:40;;;;;;;7.57;1.20;;;;;;;-143.48;79.06;78474.25;5072524;28;20028;-41
2022/09/16 02:43:06;;;;;;;6.00;1.17;;;;;;;-143.48;79.58;78470.28;5074621;28;20020;-41
2022/09/16 02:46:05;;;;;;;3.00;0.68;;;;;;;-143.48;79.05;78482.19;5075973;28;20032;-41
2022/09/16 02:49:08;;;;;;;5.55;0.95;;;;;;;-143.48;78.63;78468.28;5076175;28;20024;-41
2022/09/16 02:51:58;;;;;;;4.47;0.70;;;;;;;-143.48;78.80;78474.25;5076132;28;20032;-41
2022/09/16 02:54:38;;;;;;;3.88;0.80;;;;;;;-143.48;78.12;78476.22;5076366;28;20021;-40
2022/09/16 02:57:04;;;;;;;4.00;0.77;;;;;;;-143.48;78.48;78470.28;5041243;28;20365;-41
2022/09/16 02:59:30;;;;;;;2.90;0.63;;;;;;;-143.48;78.78;78462.34;5075898;28;20025;-41
2022/09/16 03:01:59;;;;;;;3.28;0.70;;;;;;;-143.48;78.72;78456.41;5075751;28;20079;-42
2022/09/16 03:04:24;;;;;;;5.18;1.10;;;;;;;-143.48;78.92;78474.25;5075970;28;20048;-40
2022/09/16 03:06:49;;;;;;;5.30;1.00;;;;;;;-143.48;79.49;78460.38;5075643;28;20498;-41
2022/09/16 03:09:23;;;;;;;4.95;1.08;;;;;;;-143.48;79.40;78468.28;5075624;28;20108;-46
2022/09/16 03:11:57;;;;;;;5.13;1.00;;;;;;;-143.48;80.30;78480.19;5075356;28;20022;-41
2022/09/16 03:14:40;;;;;;;7.18;0.90;;;;;;;-143.48;81.24;78478.22;5075534;28;20032;-41
2022/09/16 03:17:25;;;;;;;10.48;0.98;;;;;;;-143.48;81.23;78488.13;5075394;28;20024;-42
2022/09/16 03:20:10;;;;;;;3.63;1.10;;;;;;;-143.48;81.31;78478.22;5075374;28;20024;-40
2022/09/16 03:23:06;;;;;;;4.38;1.10;;;;;;;-143.48;80.74;78468.28;5075456;28;20368;-41
2022/09/16 03:25:49;;;;;;;4.15;0.70;;;;;;;-143.48;80.18;78444.50;5057967;28;20024;-39
2022/09/16 03:28:26;;;;;;;7.50;1.30;;;;;;;-143.48;79.45;78448.47;5075509;28;20029;-40
2022/09/16 03:31:03;;;;;;;4.07;0.65;;;;;;;-143.48;79.64;78452.44;5075450;28;20035;-40
2022/09/16 03:33:39;;;;;;;6.68;1.30;;;;;;;-143.48;79.61;78452.44;5057131;28;20021;-40
2022/09/16 03:36:08;;;;;;;6.18;1.05;;;;;;;-143.48;79.14;78438.53;5075033;28;20117;-41
2022/09/16 03:38:36;;;;;;;5.05;1.13;;;;;;;-143.48;79.35;78440.53;5075529;28;20115;-40
2022/09/16 03:41:06;;;;;;;5.25;1.10;;;;;;;-143.48;79.08;78438.53;5074930;28;20020;-40
2022/09/16 03:43:32;;;;;;;6.43;0.93;;;;;;;-143.48;79.19;78450.44;5075405;28;20063;-41
2022/09/16 03:45:57;;;;;;;3.63;1.00;;;;;;;-143.48;79.29;78468.28;5056928;28;20028;-40
2022/09/16 03:48:22;;;;;;;7.65;0.85;;;;;;;-143.48;79.72;78456.41;5075135;28;20017;-41
2022/09/16 03:50:48;;;;;;;3.42;1.15;;;;;;;-143.48;79.50;78472.25;5057009;28;20024;-40
2022/09/16 03:53:13;;;;;;;4.28;0.70;;;;;;;-143.48;79.69;78480.19;5074662;28;20028;-40
2022/09/16 03:55:38;;;;;;;4.95;0.80;;;;;;;-143.48;79.83;78476.22;5074958;28;20054;-40
2022/09/16 03:58:04;;;;;;;4.03;0.77;;;;;;;-143.48;79.99;78496.06;5056995;28;20063;-40
2022/09/16 04:00:29;;;;;;;4.75;1.10;;;;;;;-143.48;79.47;78531.75;5075198;28;20020;-40
2022/09/16 04:02:55;;;;;;;5.10;0.98;;;;;;;-143.48;79.91;78527.78;5074869;28;20032;-40
2022/09/16 04:05:20;;;;;;;4.15;1.08;;;;;;;-143.48;79.69;78529.78;5074418;28;20025;-40
2022/09/16 04:07:48;;;;;;;4.75;0.80;;;;;;;-143.48;79.98;78529.78;5074764;28;20016;-39
2022/09/16 04:10:14;;;;;;;5.15;0.82;;;;;;;-143.48;79.95;78531.75;5074675;28;20027;-40
2022/09/16 04:12:39;;;;;;;3.85;0.77;;;;;;;-143.48;79.48;78531.75;5074243;28;20053;-40
2022/09/16 04:15:05;;;;;;;2.90;0.90;;;;;;;-143.48;79.70;78523.81;5074591;28;20032;-41
2022/09/16 04:17:31;;;;;;;4.80;0.95;;;;;;;-143.48;79.83;78511.94;5074390;28;20471;-41
2022/09/16 04:19:57;;;;;;;4.30;1.05;;;;;;;-143.48;79.63;78502.00;5074131;28;20471;-41
2022/09/16 04:22:22;;;;;;;5.68;0.80;;;;;;;-143.48;79.60;78519.88;5074447;28;20027;-41
2022/09/16 04:24:47;;;;;;;5.13;0.95;;;;;;;-143.48;79.60;78541.69;5075039;28;20122;-40
2022/09/16 04:27:13;;;;;;;4.22;0.80;;;;;;;-143.48;79.52;78547.63;5074017;28;20044;-41
2022/09/16 04:29:38;;;;;;;4.57;1.00;;;;;;;-143.48;79.45;78553.56;5074552;28;20074;-40
2022/09/16 04:32:03;;;;;;;3.30;1.00;;;;;;;-143.48;79.58;78553.56;5074044;28;20020;-41
2022/09/16 04:34:31;;;;;;;12.07;1.42;;;;;;;-143.48;80.24;78555.56;5074271;28;20032;-41
2022/09/16 04:36:56;;;;;;;1.85;0.60;;;;;;;-143.48;80.06;78559.53;5056158;28;20111;-42
2022/09/16 04:39:21;;;;;;;4.72;1.33;;;;;;;-143.48;79.81;78569.44;5073995;28;20115;-42
2022/09/16 04:41:47;;;;;;;8.75;1.55;;;;;;;-143.48;80.40;78577.38;5074018;28;20097;-41
2022/09/16 04:44:14;;;;;;;3.20;0.98;;;;;;;-143.48;80.69;78579.34;5055892;28;20021;-40
2022/09/16 04:46:39;;;;;;;4.70;1.10;;;;;;;-143.48;80.57;78575.41;5055932;28;20486;-41
2022/09/16 04:49:05;;;;;;;6.03;1.23;;;;;;;-143.48;80.84;78563.50;5055772;28;20040;-41
2022/09/16 04:51:31;;;;;;;5.18;1.23;;;;;;;-143.48;80.83;78551.59;5073656;28;20527;-41
2022/09/16 04:53:58;;;;;;;3.47;1.20;;;;;;;-143.48;80.50;78551.59;5055730;28;20025;-41
2022/09/16 04:56:27;;;;;;;8.48;1.70;;;;;;;-143.48;80.75;78549.59;5055667;28;20036;-40
2022/09/16 04:58:56;;;;;;;6.47;1.40;;;;;;;-143.48;81.18;78531.75;5055674;28;20047;-39
2022/09/16 05:01:31;;;;;;;10.88;1.70;;;;;;;-143.48;80.56;78523.81;5056165;28;20344;-41
2022/09/16 05:03:59;;;;;;;4.57;1.50;;;;;;;-143.48;80.87;78517.88;5073576;28;20108;-41
2022/09/16 05:06:27;;;;;;;5.90;1.45;;;;;;;-143.48;80.79;78511.94;5073122;28;20065;-40
2022/09/16 05:08:53;;;;;;;4.65;1.50;;;;;;;-143.48;80.42;78523.81;5073854;28;20371;-45
2022/09/16 05:11:24;;;;;;;2.55;1.15;;;;;;;-143.48;80.51;78525.81;5073288;28;20024;-40
2022/09/16 05:13:50;;;;;;;5.10;1.60;;;;;;;-143.48;80.56;78539.69;5073204;28;20418;-41
2022/09/16 05:16:21;;;;;;;8.13;1.33;;;;;;;-143.48;81.38;78557.53;5073862;28;20021;-42
2022/09/16 05:18:48;;;;;;;5.13;1.25;;;;;;;-143.48;81.73;78539.69;5073826;28;20349;-41
2022/09/16 05:21:17;;;;;;;6.63;1.20;;;;;;;-143.48;81.97;78539.69;5073255;28;20464;-41
2022/09/16 05:23:43;;;;;;;9.02;1.58;;;;;;;-143.48;82.42;78525.81;5073179;28;20471;-40
2022/09/16 05:26:11;;;;;;;5.85;1.88;;;;;;;-143.48;82.51;78504.00;5073233;28;20104;-40
2022/09/16 05:28:36;;;;;;;6.65;1.25;;;;;;;-143.48;82.08;78494.06;5073601;28;20070;-41
2022/09/16 05:31:10;;;;;;;10.52;1.55;;;;;;;-143.48;81.40;78507.97;5055225;28;20020;-41
2022/09/16 05:33:36;;;;;;;4.85;1.20;;;;;;;-143.48;80.93;78492.09;5073447;28;20055;-41
2022/09/16 05:36:09;;;;;;;6.95;1.45;;;;;;;-143.48;80.47;78504.00;5073910;28;20021;-43
2022/09/16 05:38:35;;;;;;;7.45;1.40;;;;;;;-143.48;80.76;78504.00;5055132;28;20028;-41
2022/09/16 05:41:02;;;;;;;5.15;1.40;;;;;;;-143.48;80.67;78517.88;5072619;28;20464;-41
2022/09/16 05:43:27;;;;;;;8.90;1.35;;;;;;;-143.48;80.65;78511.94;5072816;28;20058;-40
2022/09/16 05:45:54;;;;;;;8.15;1.92;;;;;;;-143.48;79.99;78519.88;5073236;28;20103;-40
2022/09/16 05:48:21;;;;;;;4.82;1.30;;;;;;;-143.48;80.45;78511.94;5073031;28;20035;-41
2022/09/16 05:50:52;;;;;;;3.00;1.15;;;;;;;-143.48;79.42;78523.81;5073848;28;20024;-41
2022/09/16 05:53:17;;;;;;;4.05;1.13;;;;;;;-143.48;79.82;78523.81;5073507;28;20025;-41
2022/09/16 05:55:52;;;;;;;8.82;1.40;;;;;;;-143.48;80.28;78515.91;5072763;28;20383;-41
2022/09/16 05:58:17;;;;;;;5.28;1.38;;;;;;;-143.48;79.67;78511.94;5072822;28;20020;-41
2022/09/16 06:00:43;;;;;;;1.80;1.10;;;;;;;-143.48;79.78;78519.88;5073121;28;20071;-41
2022/09/16 06:03:08;;;;;;;8.80;1.77;;;;;;;-143.48;79.34;78511.94;5073561;28;20020;-40
2022/09/16 06:05:33;;;;;;;4.45;1.42;;;;;;;-143.48;79.01;78478.22;5072734;28;20502;-40
2022/09/16 06:07:58;;;;;;;12.75;2.80;;;;;;;-143.48;78.52;78468.28;5073073;28;20047;-40
2022/09/16 06:10:25;;;;;;;23.70;4.32;;;;;;;-143.48;78.75;78444.50;5054778;28;20016;-39
2022/09/16 06:12:50;;;;;;;15.88;2.40;;;;;;;-143.48;79.58;78464.34;5072714;28;20152;-40
2022/09/16 06:15:15;;;;;;;14.27;2.15;;;;;;;-143.48;79.47;78474.25;5073260;28;20415;-40
2022/09/16 06:17:41;;;;;;;15.63;2.03;;;;;;;-143.48;79.54;78486.16;5075010;28;20032;-40
2022/09/16 06:20:08;;;;;;;18.10;3.30;;;;;;;-143.48;79.66;78498.03;5076456;28;20021;-40
2022/09/16 06:22:34;;;;;;;8.77;1.98;;;;;;;-143.48;80.02;78498.03;5076599;28;20020;-41
2022/09/16 06:24:59;;;;;;;17.38;2.78;;;;;;;-143.48;79.30;78500.03;5076253;28;20029;-40
2022/09/16 06:27:24;;;;;;;6.90;1.55;;;;;;;-143.48;78.56;78476.22;5076868;28;20023;-41
2022/09/16 06:29:50;;;;;;;14.45;1.80;;;;;;;-143.48;78.95;78454.41;5076168;28;20028;-41
2022/09/16 06:32:15;;;;;;;7.97;2.05;;;;;;;-143.48;78.43;78446.47;5076162;28;20127;-40
2022/09/16 06:34:41;;;;;;;11.32;1.77;;;;;;;-143.48;77.71;78442.50;5058469;28;20040;-40
2022/09/16 06:37:07;;;;;;;6.40;1.45;;;;;;;-143.48;78.01;78454.41;5076076;28;20456;-40
2022/09/16 06:39:33;;;;;;;9.00;1.67;;;;;;;-143.48;77.08;78454.41;5058382;28;20028;-41
2022/09/16 06:41:59;;;;;;;11.02;1.80;;;;;;;-143.48;76.50;78438.53;5076120;28;20016;-39
2022/09/16 06:44:25;;;;;;;8.00;1.65;;;;;;;-143.48;75.70;78438.53;5058177;28;20158;-39
2022/09/16 06:46:50;;;;;;;10.55;1.73;;;;;;;-143.48;75.96;78442.50;5075620;28;20054;-40
2022/09/16 06:49:15;;;;;;;12.15;1.70;;;;;;;-143.48;75.24;78424.66;5073823;28;20029;-40
2022/09/16 06:51:41;;;;;;;9.38;1.13;;;;;;;-143.48;75.25;78410.78;5075527;28;20623;-41
2022/09/16 06:54:07;;;;;;;6.05;1.65;;;;;;;-143.48;74.88;78398.88;5076087;28;20097;-42
2022/09/16 06:56:34;;;;;;;5.53;1.27;;;;;;;-143.48;74.85;78402.84;5057499;28;20398;-40
2022/09/16 06:59:00;;;;;;;11.00;1.67;;;;;;;-143.48;74.67;78398.88;5074376;28;20035;-41
2022/09/16 07:01:27;;;;;;;4.55;1.15;;;;;;;-143.48;74.26;78381.03;5073394;28;20463;-40
2022/09/16 07:03:54;;;;;;;4.43;1.33;;;;;;;-143.48;73.98;78371.13;5074181;28;20024;-42
2022/09/16 07:06:23;;;;;;;9.20;1.38;;;;;;;-143.48;72.58;78329.47;5075085;28;20395;-41
2022/09/16 07:08:48;;;;;;;5.93;1.20;;;;;;;-143.48;72.41;78297.75;5075525;28;20017;-40
2022/09/16 07:11:16;;;;;;;4.40;1.40;;;;;;;-143.48;71.87;78303.69;5075607;28;20360;-41
2022/09/16 07:13:43;;;;;;;6.32;1.27;;;;;;;-143.48;72.08;78269.97;5075376;28;20082;-41
2022/09/16 07:16:29;;;;;;;5.35;1.42;;;;;;;-143.48;52.69;77597.75;5075933;28;20029;-40
2022/09/16 07:18:57;;;;;;;6.88;1.30;;;;;;;-143.48;45.10;77326.09;5074880;28;20043;-41
2022/09/16 07:21:27;;;;;;;7.13;1.40;;;;;;;-143.48;43.00;77223.00;5076091;28;20086;-41
2022/09/16 07:23:58;;;;;;;3.67;1.00;;;;;;;-143.48;43.01;77282.47;5075451;28;20095;-41
2022/09/16 07:26:26;;;;;;;6.90;1.10;;;;;;;-143.48;41.14;77123.88;5075908;28;20107;-41
2022/09/16 07:28:53;;;;;;;10.73;1.92;;;;;;;-143.48;40.38;77127.84;5074103;28;20043;-42
2022/09/16 07:31:23;;;;;;;6.72;1.70;;;;;;;-143.48;41.19;77121.88;5075218;28;20048;-41
2022/09/16 07:33:49;;;;;;;5.93;1.63;;;;;;;-143.48;40.13;77167.50;5057471;28;20056;-41
2022/09/16 07:36:22;;;;;;;4.20;1.30;;;;;;;-143.48;46.49;77500.59;5075212;28;20028;-41
2022/09/16 07:38:48;;;;;;;;;;;;;;;-143.48;55.56;77988.38;5075193;28;20025;-41
2022/09/16 07:41:17;;;;;;;3.40;1.00;;;;;;;-143.48;59.69;78069.69;5074499;28;20343;-41
2022/09/16 07:43:43;;;;;;;6.00;1.40;;;;;;;-143.48;59.74;78063.72;5074579;28;20024;-40
2022/09/16 07:46:10;;;;;;;5.45;1.00;;;;;;;-143.48;62.97;78186.69;5055892;28;20025;-41
2022/09/16 07:48:35;;;;;;;6.78;1.55;;;;;;;-143.48;65.16;78268.00;5075149;28;20016;-42
2022/09/16 07:51:05;;;;;;;6.68;1.30;;;;;;;-143.48;66.96;78309.63;5074918;28;20352;-40
2022/09/16 07:53:31;;;;;;;8.85;0.90;;;;;;;-143.48;68.23;78359.22;5074600;28;20056;-41
2022/09/16 07:56:10;;;;;;;9.30;0.82;;;;;;;-143.48;70.68;78406.81;5074766;28;20115;-41
2022/09/16 07:58:37;;;;;;;3.88;1.23;;;;;;;-143.48;71.37;78392.94;5074396;28;20028;-41
2022/09/16 08:01:04;;;;;;;7.05;1.20;;;;;;;-143.48;72.00;78398.88;5056488;28;20020;-40
2022/09/16 08:03:29;;;;;;;7.30;1.42;;;;;;;-143.48;72.27;78410.78;5074639;28;20054;-41
2022/09/16 08:06:02;;;;;;;4.38;0.93;;;;;;;-143.48;72.19;78402.84;5074221;28;20025;-40
2022/09/16 08:08:30;;;;;;;11.43;1.25;;;;;;;-143.48;72.13;78325.50;5074069;28;20021;-40
2022/09/16 08:10:56;;;;;;;4.55;1.40;;;;;;;-143.48;66.38;78145.03;5073419;28;20025;-40
2022/09/16 08:13:23;;;;;;;9.27;1.35;;;;;;;-143.48;52.65;77585.84;5073275;28;20130;-41
2022/09/16 08:15:48;;;;;;;6.22;1.15;;;;;;;-143.48;55.83;77871.38;5073422;28;20158;-41
2022/09/16 08:18:13;;;;;;;4.85;1.25;;;;;;;-143.48;61.26;78109.34;5055089;28;20418;-39
2022/09/16 08:20:39;;;;;;;8.98;1.58;;;;;;;-143.48;55.75;77786.13;5073247;28;20028;-40
2022/09/16 08:23:04;;;;;;;6.53;1.90;;;;;;;-143.48;47.37;77492.66;5073056;28;20029;-41
2022/09/16 08:25:29;;;;;;;8.30;1.88;;;;;;;-143.48;45.50;77314.19;5073580;28;20032;-41
2022/09/16 08:27:55;;;;;;;9.95;1.73;;;;;;;-143.48;43.83;77252.75;5073865;28;20103;-42
2022/09/16 08:30:20;;;;;;;7.32;1.70;;;;;;;-143.48;49.85;77625.50;5073682;28;20024;-42
2022/09/16 08:32:45;;;;;;;5.68;1.40;;;;;;;-143.48;48.89;77566.00;5074011;28;20020;-42
2022/09/16 08:35:13;;;;;;;7.03;1.67;;;;;;;-143.48;46.27;77468.84;5073911;28;20426;-41
2022/09/16 08:37:38;;;;;;;8.02;1.75;;;;;;;-143.48;43.51;77203.19;5074127;28;20032;-41
2022/09/16 08:40:05;;;;;;;6.85;1.90;;;;;;;-143.48;41.29;77143.69;5073332;28;20099;-42
2022/09/16 08:42:39;;;;;;;6.13;1.42;;;;;;;-143.48;39.68;77054.47;5074641;28;20410;-42
2022/09/16 08:45:45;;;;;;;7.25;1.63;;;;;;;-143.48;46.61;77480.75;5074047;28;20027;-42
2022/09/16 08:48:27;;;;;;;5.90;1.23;;;;;;;-143.48;50.90;77708.78;5074265;28;20020;-41
2022/09/16 08:50:53;;;;;;;7.55;1.80;;;;;;;-143.48;55.46;77859.47;5074695;28;20028;-41
2022/09/16 08:53:31;;;;;;;9.80;2.10;;;;;;;-143.48;57.76;78000.28;5073797;28;20037;-46
2022/09/16 08:55:58;;;;;;;10.80;1.67;;;;;;;-143.48;62.38;78089.50;5073734;28;20028;-41
2022/09/16 08:58:29;;;;;;;8.77;1.60;;;;;;;-143.48;63.83;78145.03;5073948;28;20032;-44
2022/09/16 09:01:03;;;;;;;8.13;1.60;;;;;;;-143.48;64.30;78196.59;5055734;28;20037;-40
2022/09/16 09:03:44;;;;;;;6.97;1.27;;;;;;;-143.48;65.37;78242.22;5073590;28;20466;-40
2022/09/16 09:06:17;;;;;;;5.05;1.17;;;;;;;-143.48;65.42;78184.69;5073634;28;20038;-40
2022/09/16 09:08:50;;;;;;;6.15;1.20;;;;;;;-143.48;64.97;78162.88;5073650;28;20031;-41
2022/09/16 09:11:27;;;;;;;6.10;1.25;;;;;;;-143.48;62.09;78043.91;5073334;28;20060;-40
2022/09/16 09:14:17;;;;;;;6.93;1.30;;;;;;;-143.48;58.86;77913.03;5073138;28;20427;-40
2022/09/16 09:16:55;;;;;;;6.45;1.27;;;;;;;-143.48;61.89;77970.53;5073096;28;20101;-41
2022/09/16 09:19:45;;;;;;;8.77;1.27;;;;;;;-143.48;60.42;77958.63;5073866;28;20036;-40
2022/09/16 09:22:53;;;;;;;5.45;1.02;;;;;;;-143.48;56.17;77714.72;5073707;28;20431;-41
2022/09/16 09:25:45;;;;;;;11.40;1.48;;;;;;;-143.48;58.06;77980.44;5058554;28;20032;-41
2022/09/16 09:28:31;;;;;;;5.95;1.27;;;;;;;-143.48;60.27;78051.84;5073902;28;20463;-40
2022/09/16 09:31:06;;;;;;;7.15;1.25;;;;;;;-143.48;61.22;78125.22;5073665;28;20383;-40
2022/09/16 09:33:44;;;;;;;3.55;1.23;;;;;;;-143.48;62.85;78123.22;5073310;28;20020;-41
2022/09/16 09:36:42;;;;;;;4.40;1.10;;;;;;;-143.48;60.92;78067.69;5073186;28;20079;-40
2022/09/16 09:39:35;;;;;;;4.10;0.68;;;;;;;-143.48;56.86;77895.19;5033545;28;20040;-41
2022/09/16 09:42:14;;;;;;;3.60;1.02;;;;;;;-143.48;56.25;77928.88;5055281;28;20033;-42
2022/09/16 09:45:02;;;;;;;8.98;1.20;;;;;;;-143.48;55.46;77976.47;5073314;28;20101;-49
2022/09/16 09:47:46;;;;;;;6.25;0.70;;;;;;;-143.48;56.69;77950.69;5073348;28;20081;-41
2022/09/16 09:50:21;;;;;;;7.40;1.08;;;;;;;-143.48;56.79;77918.97;5073454;28;20032;-41
2022/09/16 09:52:56;;;;;;;3.72;0.70;;;;;;;-143.48;57.08;77962.59;5058490;28;20411;-42
2022/09/16 09:55:23;;;;;;;4.18;0.90;;;;;;;-143.48;57.34;77964.56;5077468;28;20036;-41
2022/09/16 09:58:10;;;;;;;3.35;0.90;;;;;;;-143.48;59.00;78028.03;5076913;28;20028;-40
2022/09/16 10:00:37;;;;;;;7.85;1.05;;;;;;;-143.48;62.93;78172.81;5076982;28;20059;-41
2022/09/16 10:03:11;;;;;;;4.38;1.20;;;;;;;-143.48;64.90;78258.06;5077162;28;20107;-41
2022/09/16 10:05:37;;;;;;;6.00;0.82;;;;;;;-143.48;67.25;78315.59;5076870;28;20024;-40
2022/09/16 10:08:12;;;;;;;9.30;1.10;;;;;;;-143.48;68.16;78343.34;5076880;28;20020;-41
2022/09/16 10:11:07;;;;;;;6.88;1.00;;;;;;;-143.48;69.31;78329.47;5077106;28;20044;-40
2022/09/16 10:13:32;;;;;;;7.22;1.13;;;;;;;-143.48;69.35;78331.44;5075718;28;20593;-41
2022/09/16 10:16:12;;;;;;;4.88;1.25;;;;;;;-143.48;69.30;78297.75;5076688;28;20037;-42
2022/09/16 10:18:38;;;;;;;8.70;1.02;;;;;;;-143.48;69.10;78277.91;5076892;28;20504;-40
2022/09/16 10:21:10;;;;;;;4.97;1.00;;;;;;;-143.48;68.24;78174.78;5077082;28;20107;-41
2022/09/16 10:23:37;;;;;;;5.30;1.30;;;;;;;-143.48;66.08;78202.56;5076437;28;20044;-40
2022/09/16 10:26:24;;;;;;;3.90;0.70;;;;;;;-143.48;65.69;78248.16;5076787;28;20494;-40
2022/09/16 10:29:02;;;;;;;4.80;1.30;;;;;;;-143.48;66.17;78236.25;5076452;28;20082;-41
2022/09/16 10:31:34;;;;;;;5.50;1.20;;;;;;;-143.48;66.41;78234.28;5076407;28;20036;-41
2022/09/16 10:34:00;;;;;;;4.03;0.98;;;;;;;-143.48;63.61;78152.97;5076300;28;20027;-41
2022/09/16 10:36:31;;;;;;;4.60;1.05;;;;;;;-143.48;63.22;77972.50;5076335;28;20039;-41
2022/09/16 10:38:58;;;;;;;6.30;0.93;;;;;;;-143.48;60.75;77968.53;5075940;28;20025;-42
2022/09/16 10:41:26;;;;;;;6.72;0.90;;;;;;;-143.48;62.00;77952.69;5076079;28;20021;-42
2022/09/16 10:44:01;;;;;;;7.43;1.10;;;;;;;-143.48;57.62;77883.28;5076127;28;20024;-41
2022/09/16 10:46:28;;;;;;;6.88;1.38;;;;;;;-143.48;59.30;77948.72;5076326;28;20378;-41
2022/09/16 10:48:59;;;;;;;5.50;1.10;;;;;;;-143.48;57.61;77936.81;5076110;28;20095;-42
2022/09/16 10:51:27;;;;;;;4.93;1.10;;;;;;;-143.48;57.60;77871.38;5076085;28;20023;-42
2022/09/16 10:53:57;;;;;;;4.78;1.17;;;;;;;-143.48;53.18;77702.84;5076212;28;20463;-42
2022/09/16 10:56:28;;;;;;;7.65;1.45;;;;;;;-143.48;51.58;77819.81;5075312;28;20116;-41
2022/09/16 10:59:18;;;;;;;7.40;1.15;;;;;;;-143.48;58.61;77770.25;5057684;28;20024;-42
2022/09/16 11:01:43;;;;;;;5.97;1.30;;;;;;;-143.48;53.82;77774.22;5076051;28;20024;-42
2022/09/16 11:04:31;;;;;;;7.10;1.10;;;;;;;-143.48;57.59;77917.00;5075058;28;20032;-42
2022/09/16 11:07:15;;;;;;;6.40;1.48;;;;;;;-143.48;60.68;78032.00;5076550;28;20358;-41
2022/09/16 11:10:30;;;;;;;5.07;1.20;;;;;;;-143.48;60.82;78077.63;5075991;28;20028;-42
2022/09/16 11:13:24;;;;;;;10.18;1.80;;;;;;;-143.48;63.08;78127.19;5067962;28;20044;-41
2022/09/16 11:16:17;;;;;;;9.60;1.50;;;;;;;-143.48;64.63;78139.09;5075636;28;20029;-40
2022/09/16 11:18:42;;;;;;;9.00;1.48;;;;;;;-143.48;65.09;78198.59;5076076;28;20035;-41
2022/09/16 11:21:34;;;;;;;9.33;1.60;;;;;;;-143.48;65.20;78291.78;5075612;28;20544;-40
2022/09/16 11:24:36;;;;;;;12.55;1.80;;;;;;;-143.48;67.51;78381.03;5075666;28;20275;-40
2022/09/16 11:27:46;;;;;;;7.85;1.40;;;;;;;-143.48;64.95;78379.06;5075558;28;20028;-40
2022/09/16 11:30:18;;;;;;;5.15;1.30;;;;;;;-143.48;64.39;78349.31;5075312;28;20111;-42
2022/09/16 11:33:10;;;;;;;7.95;1.30;;;;;;;-143.48;65.34;78325.50;5075659;28;20394;-41
2022/09/16 11:35:38;;;;;;;7.43;1.38;;;;;;;-143.48;64.70;78293.78;5075777;28;20382;-41
2022/09/16 11:38:22;;;;;;;7.28;1.08;;;;;;;-143.48;62.57;78198.59;5075371;28;20025;-41